createdAt,value
2019-01-16T00:02:33.408Z,67.55
2019-01-16T00:09:04.224Z,67.60
2019-01-16T00:15:24.745Z,67.53
2019-01-16T00:21:48.253Z,67.70
2019-01-16T00:28:15.926Z,67.78
2019-01-16T00:34:32.260Z,67.88
2019-01-16T00:40:51.752Z,67.97
2019-01-16T00:47:12.356Z,68.11
2019-01-16T00:53:40.570Z,68.44
2019-01-16T01:00:07.982Z,68.61
2019-01-16T01:06:39.091Z,68.76
2019-01-16T01:13:06.896Z,68.91
2019-01-16T01:19:37.530Z,69.02
2019-01-16T01:26:20.421Z,69.07
2019-01-16T01:32:45.111Z,69.20
2019-01-16T01:39:12.667Z,69.20
2019-01-16T01:45:40.232Z,69.43
2019-01-16T01:52:03.340Z,69.46
2019-01-16T01:58:30.781Z,69.52
2019-01-16T02:04:57.895Z,69.66
2019-01-16T02:11:12.116Z,69.62
2019-01-16T02:17:35.257Z,69.77
2019-01-16T02:24:14.480Z,69.71
2019-01-16T02:30:46.148Z,69.74
2019-01-16T02:37:09.068Z,69.77
2019-01-16T02:43:39.567Z,69.66
2019-01-16T02:50:19.807Z,69.73
2019-01-16T02:57:02.617Z,69.70
2019-01-16T03:03:20.954Z,69.56
2019-01-16T03:09:48.496Z,69.54
2019-01-16T03:16:25.466Z,69.52
2019-01-16T03:22:47.997Z,69.95
2019-01-16T03:29:08.172Z,70.30
2019-01-16T03:35:31.531Z,71.11
2019-01-16T03:41:56.370Z,71.64
2019-01-16T03:48:20.972Z,71.81
2019-01-16T03:54:49.338Z,72.05
2019-01-16T04:01:14.131Z,72.39
2019-01-16T04:07:47.740Z,72.45
2019-01-16T04:14:11.160Z,72.21
2019-01-16T04:20:26.766Z,72.00
2019-01-16T04:26:46.349Z,71.87
2019-01-16T04:33:00.968Z,71.89
2019-01-16T04:39:28.766Z,72.00
2019-01-16T04:45:53.582Z,71.87
2019-01-16T04:52:21.642Z,71.87
2019-01-16T04:59:03.974Z,71.75
2019-01-16T05:05:31.958Z,71.58
2019-01-16T05:12:02.475Z,71.19
2019-01-16T05:18:42.535Z,70.54
2019-01-16T05:25:06.268Z,70.17
2019-01-16T05:31:49.213Z,69.29
2019-01-16T05:38:25.778Z,68.89
2019-01-16T05:44:56.570Z,68.21
2019-01-16T05:51:15.179Z,68.10
2019-01-16T05:57:39.039Z,67.91
2019-01-16T06:04:09.910Z,67.43
2019-01-16T06:10:34.369Z,67.12
2019-01-16T06:17:11.620Z,67.00
2019-01-16T06:23:36.416Z,66.58
2019-01-16T06:30:07.494Z,66.22
2019-01-16T06:36:31.181Z,66.14
2019-01-16T06:42:59.260Z,65.64
2019-01-16T06:49:39.238Z,65.25
2019-01-16T06:56:13.539Z,64.96
2019-01-16T07:02:37.087Z,64.74
2019-01-16T07:09:20.460Z,64.48
2019-01-16T07:15:46.581Z,64.14
2019-01-16T07:22:23.431Z,63.52
2019-01-16T07:28:37.764Z,63.41
2019-01-16T07:35:01.234Z,62.98
2019-01-16T07:41:29.524Z,62.97
2019-01-16T07:48:02.983Z,62.54
2019-01-16T07:54:26.579Z,62.29
2019-01-16T08:00:50.085Z,62.03
2019-01-16T08:07:13.450Z,61.84
2019-01-16T08:13:48.507Z,61.66
2019-01-16T08:20:31.459Z,61.50
2019-01-16T08:26:46.410Z,61.51
2019-01-16T08:33:17.345Z,61.06
2019-01-16T08:39:32.120Z,60.85
2019-01-16T08:45:56.657Z,60.89
2019-01-16T08:52:34.675Z,60.75
2019-01-16T08:59:02.502Z,60.79
2019-01-16T09:05:28.465Z,60.39
2019-01-16T09:12:11.463Z,60.47
2019-01-16T09:18:24.580Z,60.44
2019-01-16T09:24:45.800Z,60.19
2019-01-16T09:31:16.580Z,59.98
2019-01-16T09:37:59.428Z,60.04
2019-01-16T09:44:36.892Z,59.39
2019-01-16T09:51:07.995Z,59.05
2019-01-16T09:57:31.511Z,59.25
2019-01-16T10:03:59.270Z,58.66
2019-01-16T10:10:30.303Z,58.71
2019-01-16T10:17:04.064Z,58.55
2019-01-16T10:23:35.694Z,58.00
2019-01-16T10:30:00.886Z,57.58
2019-01-16T10:36:24.640Z,57.55
2019-01-16T10:42:58.542Z,57.37
2019-01-16T10:49:21.712Z,57.43
2019-01-16T10:55:55.333Z,57.37
2019-01-16T11:02:15.024Z,57.15
2019-01-16T11:08:51.905Z,57.27
2019-01-16T11:15:19.928Z,57.22
2019-01-16T11:21:43.363Z,57.23
2019-01-16T11:27:59.107Z,57.07
2019-01-16T11:34:23.115Z,57.14
2019-01-16T11:40:45.354Z,56.41
2019-01-16T11:47:16.764Z,56.57
2019-01-16T11:53:44.789Z,56.59
2019-01-16T12:00:10.264Z,56.41
2019-01-16T12:06:44.457Z,56.12
2019-01-16T12:13:09.335Z,56.18
2019-01-16T12:19:36.736Z,56.00
2019-01-16T12:26:08.021Z,56.32
2019-01-16T12:32:28.228Z,56.29
2019-01-16T12:38:51.978Z,56.41
2019-01-16T12:45:28.582Z,56.53
2019-01-16T12:52:02.244Z,56.80
2019-01-16T12:58:30.579Z,56.71
2019-01-16T13:04:58.428Z,56.45
2019-01-16T13:11:21.621Z,56.60
2019-01-16T13:17:45.331Z,56.60
2019-01-16T13:24:14.694Z,56.77
2019-01-16T13:30:38.224Z,56.68
2019-01-16T13:37:02.420Z,56.64
2019-01-16T13:43:27.146Z,56.40
2019-01-16T13:49:50.435Z,56.56
2019-01-16T13:56:24.742Z,56.95
2019-01-16T14:02:48.872Z,56.92
2019-01-16T14:09:03.227Z,56.85
2019-01-16T14:15:36.608Z,56.88
2019-01-16T14:21:59.668Z,56.67
2019-01-16T14:28:24.871Z,56.77
2019-01-16T14:34:45.038Z,56.73
2019-01-16T14:41:14.281Z,56.69
2019-01-16T14:47:53.752Z,56.70
2019-01-16T14:54:33.591Z,56.50
2019-01-16T15:00:56.818Z,56.67
2019-01-16T15:07:21.492Z,56.86
2019-01-16T15:14:01.229Z,56.86
2019-01-16T15:20:39.416Z,56.88
2019-01-16T15:27:03.077Z,57.03
2019-01-16T15:33:34.537Z,57.12
2019-01-16T15:40:01.606Z,57.23
2019-01-16T15:46:25.258Z,57.31
2019-01-16T15:52:49.363Z,57.43
2019-01-16T15:59:13.867Z,57.44
2019-01-16T16:05:41.062Z,57.67
2019-01-16T16:12:20.435Z,58.01
2019-01-16T16:18:52.973Z,58.23
2019-01-16T16:25:10.220Z,58.49
2019-01-16T16:31:26.974Z,58.94
2019-01-16T16:37:51.310Z,59.17
2019-01-16T16:44:22.437Z,59.13
2019-01-16T16:50:47.637Z,59.33
2019-01-16T16:57:18.134Z,59.57
2019-01-16T17:03:43.035Z,59.69
2019-01-16T17:09:58.368Z,59.69
2019-01-16T17:16:21.464Z,59.67
2019-01-16T17:22:52.867Z,59.61
2019-01-16T17:29:16.144Z,59.51
2019-01-16T17:35:37.351Z,59.52
2019-01-16T17:42:08.078Z,59.29
2019-01-16T17:48:29.436Z,59.48
2019-01-16T17:55:00.215Z,59.33
2019-01-16T18:01:23.647Z,59.33
2019-01-16T18:07:51.237Z,59.06
2019-01-16T18:14:22.239Z,58.99
2019-01-16T18:20:52.955Z,58.93
2019-01-16T18:27:37.835Z,58.82
2019-01-16T18:33:57.626Z,58.45
2019-01-16T18:40:14.600Z,58.32
2019-01-16T18:46:45.071Z,58.08
2019-01-16T18:53:02.248Z,57.82
2019-01-16T18:59:43.741Z,58.04
2019-01-16T19:06:08.361Z,58.00
2019-01-16T19:12:34.578Z,58.14
2019-01-16T19:18:48.483Z,58.24
2019-01-16T19:25:11.770Z,58.35
2019-01-16T19:31:51.191Z,58.26
2019-01-16T19:38:24.897Z,58.46
2019-01-16T19:44:49.702Z,58.53
2019-01-16T19:51:15.282Z,58.66
2019-01-16T19:57:33.647Z,58.52
2019-01-16T20:03:51.524Z,58.49
2019-01-16T20:10:25.107Z,58.63
2019-01-16T20:16:48.320Z,58.70
2019-01-16T20:23:19.117Z,58.35
2019-01-16T20:29:56.040Z,58.35
2019-01-16T20:36:23.643Z,58.19
2019-01-16T20:42:46.787Z,58.26
2019-01-16T20:49:16.149Z,58.40
2019-01-16T20:55:30.896Z,58.47
2019-01-16T21:01:55.999Z,58.65
2019-01-16T21:08:12.579Z,58.75
2019-01-16T21:14:44.710Z,58.92
2019-01-16T21:21:01.009Z,59.10
2019-01-16T21:27:32.389Z,59.36
2019-01-16T21:34:00.065Z,59.35
2019-01-16T21:40:42.131Z,59.46
2019-01-16T21:47:19.963Z,59.68
2019-01-16T21:53:53.766Z,59.75
2019-01-16T22:00:17.667Z,59.82
2019-01-16T22:06:37.513Z,59.85
2019-01-16T22:13:17.276Z,59.93
2019-01-16T22:19:43.306Z,59.99
2019-01-16T22:26:02.494Z,60.09
2019-01-16T22:32:35.058Z,60.05
2019-01-16T22:39:00.388Z,60.20
2019-01-16T22:45:29.148Z,59.96
2019-01-16T22:51:50.638Z,60.26
2019-01-16T22:58:14.302Z,60.48
2019-01-16T23:04:38.972Z,60.61
2019-01-16T23:11:14.176Z,61.09
2019-01-16T23:17:38.838Z,61.69
2019-01-16T23:24:04.785Z,62.43
2019-01-16T23:30:31.919Z,63.64
2019-01-16T23:36:59.791Z,64.72
2019-01-16T23:43:23.868Z,65.67
2019-01-16T23:49:57.465Z,66.31
2019-01-16T23:56:23.472Z,67.13
